createdAt,value
2019-04-21T00:03:40.700Z,22.80
2019-04-21T00:06:31.490Z,22.90
2019-04-21T00:08:56.512Z,22.55
2019-04-21T00:11:29.370Z,24.05
2019-04-21T00:13:52.750Z,23.85
2019-04-21T00:16:12.021Z,24.63
2019-04-21T00:19:01.126Z,24.57
2019-04-21T00:21:30.852Z,24.63
2019-04-21T00:24:23.962Z,24.67
2019-04-21T00:27:03.897Z,24.77
2019-04-21T00:29:36.705Z,24.40
2019-04-21T00:31:58.866Z,24.98
2019-04-21T00:34:15.324Z,24.87
2019-04-21T00:36:56.051Z,25.37
2019-04-21T00:39:43.545Z,25.72
2019-04-21T00:42:08.416Z,25.95
2019-04-21T00:44:27.481Z,26.95
2019-04-21T00:49:57.835Z,25.10
2019-04-21T00:52:53.907Z,25.37
2019-04-21T00:55:44.491Z,26.62
2019-04-21T00:58:33.880Z,26.87
2019-04-21T01:01:01.574Z,27.17
2019-04-21T01:03:36.191Z,28.02
2019-04-21T01:06:03.657Z,28.83
2019-04-21T01:08:31.214Z,29.90
2019-04-21T01:10:52.783Z,30.12
2019-04-21T01:13:41.277Z,30.90
2019-04-21T01:16:07.142Z,29.48
2019-04-21T01:18:33.130Z,25.32
2019-04-21T01:20:43.144Z,24.87
2019-04-21T01:23:12.706Z,24.47
2019-04-21T01:25:50.444Z,25.68
2019-04-21T01:28:32.821Z,25.82
2019-04-21T01:31:05.731Z,26.17
2019-04-21T01:36:01.930Z,27.22
2019-04-21T01:41:08.384Z,25.55
2019-04-21T01:43:33.326Z,25.15
2019-04-21T01:46:00.893Z,25.17
2019-04-21T01:48:31.879Z,26.35
2019-04-21T01:51:00.711Z,25.30
2019-04-21T01:53:36.659Z,25.60
2019-04-21T01:56:16.955Z,26.45
2019-04-21T01:58:40.498Z,26.75
2019-04-21T02:01:21.662Z,26.57
2019-04-21T02:03:54.487Z,26.65
2019-04-21T02:06:24.179Z,27.65
2019-04-21T02:08:49.041Z,27.22
2019-04-21T02:11:23.169Z,27.40
2019-04-21T02:13:58.865Z,27.77
2019-04-21T02:16:18.573Z,27.93
2019-04-21T02:18:50.988Z,28.00
2019-04-21T02:21:15.358Z,26.10
2019-04-21T02:24:01.835Z,28.57
2019-04-21T02:26:28.464Z,27.55
2019-04-21T02:29:00.058Z,28.77
2019-04-21T02:34:04.587Z,26.60
2019-04-21T02:37:05.333Z,27.70
2019-04-21T02:39:16.439Z,27.40
2019-04-21T02:41:51.090Z,27.83
2019-04-21T02:44:21.734Z,27.58
2019-04-21T02:46:47.546Z,28.20
2019-04-21T02:49:32.684Z,26.07
2019-04-21T02:51:47.446Z,27.37
2019-04-21T02:54:40.973Z,27.27
2019-04-21T02:56:51.459Z,27.37
2019-04-21T02:59:29.087Z,27.15
2019-04-21T03:01:56.672Z,27.15
2019-04-21T03:14:56.007Z,28.67
2019-04-21T03:17:22.386Z,28.65
2019-04-21T03:22:20.061Z,28.27
2019-04-21T03:25:20.493Z,26.40
2019-04-21T03:29:54.769Z,28.50
2019-04-21T03:35:15.276Z,28.00
2019-04-21T03:37:26.953Z,27.00
2019-04-21T03:39:50.774Z,28.23
2019-04-21T03:42:25.607Z,27.95
2019-04-21T03:44:54.243Z,28.05
2019-04-21T03:47:24.891Z,27.70
2019-04-21T03:49:56.400Z,28.45
2019-04-21T03:52:30.248Z,27.37
2019-04-21T03:55:47.842Z,28.17
2019-04-21T03:58:13.097Z,27.05
2019-04-21T04:00:34.694Z,28.55
2019-04-21T04:03:10.597Z,28.10
2019-04-21T04:05:55.775Z,30.12
2019-04-21T04:08:39.619Z,29.05
2019-04-21T04:11:08.312Z,28.83
2019-04-21T04:13:32.807Z,29.92
2019-04-21T04:16:05.917Z,31.07
2019-04-21T04:21:15.018Z,28.57
2019-04-21T04:23:43.329Z,30.08
2019-04-21T04:26:09.203Z,30.25
2019-04-21T04:31:20.416Z,29.30
2019-04-21T04:33:48.305Z,30.57
2019-04-21T04:36:21.987Z,29.53
2019-04-21T04:38:51.999Z,30.45
2019-04-21T04:41:16.255Z,29.95
2019-04-21T04:43:50.648Z,30.10
2019-04-21T04:46:22.436Z,30.85
2019-04-21T04:48:47.550Z,30.73
2019-04-21T04:51:12.228Z,31.87
2019-04-21T04:53:43.909Z,30.72
2019-04-21T04:56:10.815Z,30.90
2019-04-21T05:01:21.533Z,31.42
2019-04-21T05:04:05.850Z,31.97
2019-04-21T05:11:40.196Z,31.52
2019-04-21T05:14:03.045Z,32.08
2019-04-21T05:21:37.555Z,32.53
2019-04-21T05:23:48.439Z,30.88
2019-04-21T05:26:09.813Z,30.40
2019-04-21T05:28:40.895Z,32.48
2019-04-21T05:31:25.086Z,31.60
2019-04-21T05:34:03.073Z,32.60
2019-04-21T05:36:59.555Z,33.23
2019-04-21T05:39:27.041Z,33.08
2019-04-21T05:41:48.867Z,32.23
2019-04-21T05:44:35.406Z,33.75
2019-04-21T05:49:35.350Z,32.33
2019-04-21T05:52:04.051Z,32.65
2019-04-21T05:57:05.931Z,32.75
2019-04-21T05:59:40.036Z,34.27
2019-04-21T06:02:20.924Z,32.53
2019-04-21T06:05:02.347Z,32.85
2019-04-21T06:07:13.947Z,32.95
2019-04-21T06:09:48.794Z,31.55
2019-04-21T06:12:10.304Z,32.73
2019-04-21T06:14:44.929Z,33.48
2019-04-21T06:17:19.727Z,31.25
2019-04-21T06:19:45.072Z,32.03
2019-04-21T06:22:07.710Z,32.05
2019-04-21T06:24:54.610Z,32.83
2019-04-21T06:27:16.330Z,32.98
2019-04-21T06:29:43.711Z,31.75
2019-04-21T06:32:38.419Z,32.93
2019-04-21T06:34:59.075Z,32.65
2019-04-21T06:37:34.755Z,33.53
2019-04-21T06:42:16.412Z,34.00
2019-04-21T06:44:54.660Z,31.90
2019-04-21T06:47:24.656Z,31.15
2019-04-21T06:49:45.659Z,31.40
2019-04-21T06:52:30.522Z,32.88
2019-04-21T06:54:49.459Z,33.78
2019-04-21T06:57:18.200Z,33.65
2019-04-21T06:59:43.411Z,32.15
2019-04-21T07:02:30.639Z,32.55
2019-04-21T07:04:51.712Z,32.55
2019-04-21T07:07:18.149Z,31.87
2019-04-21T07:09:52.829Z,30.85
2019-04-21T07:12:14.203Z,29.93
2019-04-21T07:14:50.034Z,32.08
2019-04-21T07:17:17.917Z,31.20
2019-04-21T07:19:49.987Z,30.55
2019-04-21T07:22:22.936Z,30.90
2019-04-21T07:24:49.256Z,29.82
2019-04-21T07:27:16.275Z,31.42
2019-04-21T07:29:54.956Z,31.33
2019-04-21T07:32:19.222Z,31.02
2019-04-21T07:35:00.655Z,31.42
2019-04-21T07:37:17.323Z,32.33
2019-04-21T07:39:45.081Z,31.42
2019-04-21T07:42:13.279Z,33.10
2019-04-21T07:47:20.456Z,31.12
2019-04-21T07:49:57.371Z,30.95
2019-04-21T07:57:31.612Z,31.90
2019-04-21T08:00:15.030Z,30.43
2019-04-21T08:02:38.510Z,32.55
2019-04-21T08:08:08.115Z,32.90
2019-04-21T08:10:40.824Z,32.08
2019-04-21T08:13:14.835Z,31.93
2019-04-21T08:15:39.731Z,31.45
2019-04-21T08:18:11.787Z,30.62
2019-04-21T08:20:34.866Z,32.80
2019-04-21T08:23:13.246Z,31.20
2019-04-21T08:25:46.103Z,32.25
2019-04-21T08:28:09.104Z,31.60
2019-04-21T08:30:43.218Z,30.57
2019-04-21T08:33:16.185Z,30.75
2019-04-21T08:36:03.308Z,30.88
2019-04-21T08:40:45.732Z,30.32
2019-04-21T08:43:21.703Z,30.95
2019-04-21T08:45:46.823Z,32.98
2019-04-21T08:50:44.223Z,30.62
2019-04-21T08:53:14.444Z,31.37
2019-04-21T08:55:58.934Z,30.85
2019-04-21T08:58:34.113Z,29.67
2019-04-21T09:01:08.784Z,29.85
2019-04-21T09:06:57.221Z,29.15
2019-04-21T09:09:10.965Z,30.40
2019-04-21T09:11:40.509Z,31.17
2019-04-21T09:14:13.804Z,30.82
2019-04-21T09:16:40.730Z,30.25
2019-04-21T09:19:11.564Z,31.75
2019-04-21T09:21:46.930Z,31.17
2019-04-21T09:24:18.980Z,30.10
2019-04-21T09:26:43.202Z,31.20
2019-04-21T09:29:05.983Z,30.62
2019-04-21T09:31:32.229Z,32.08
2019-04-21T09:33:59.259Z,29.65
2019-04-21T09:36:35.050Z,29.15
2019-04-21T09:39:03.802Z,30.52
2019-04-21T09:41:27.868Z,30.50
2019-04-21T09:43:57.918Z,29.87
2019-04-21T09:46:51.915Z,29.75
2019-04-21T09:49:20.587Z,30.35
2019-04-21T09:51:45.960Z,29.67
2019-04-21T09:54:22.449Z,29.90
2019-04-21T09:56:52.341Z,29.80
2019-04-21T09:59:20.636Z,31.15
2019-04-21T10:01:54.982Z,29.85
2019-04-21T10:04:16.431Z,31.10
2019-04-21T10:06:45.331Z,28.65
2019-04-21T10:09:17.362Z,29.72
2019-04-21T10:11:44.078Z,30.70
2019-04-21T10:14:13.520Z,30.37
2019-04-21T10:19:21.077Z,30.40
2019-04-21T10:21:50.132Z,30.02
2019-04-21T10:24:18.638Z,29.77
2019-04-21T10:26:47.231Z,30.00
2019-04-21T10:29:22.747Z,30.27
2019-04-21T10:31:46.853Z,29.72
2019-04-21T10:34:17.028Z,28.57
2019-04-21T10:36:46.968Z,28.95
2019-04-21T10:39:15.768Z,29.52
2019-04-21T10:41:45.654Z,27.87
2019-04-21T10:44:14.281Z,28.55
2019-04-21T10:46:45.349Z,27.87
2019-04-21T10:49:20.416Z,29.02
2019-04-21T10:51:49.017Z,28.80
2019-04-21T10:54:17.893Z,28.70
2019-04-21T10:56:47.899Z,28.92
2019-04-21T10:59:16.646Z,28.02
2019-04-21T11:01:45.311Z,29.40
2019-04-21T11:04:27.258Z,29.37
2019-04-21T11:06:52.686Z,30.15
2019-04-21T11:09:22.045Z,28.67
2019-04-21T11:11:53.192Z,29.12
2019-04-21T11:14:21.082Z,28.85
2019-04-21T11:16:51.516Z,30.82
2019-04-21T11:19:20.118Z,29.60
2019-04-21T11:21:49.292Z,28.83
2019-04-21T11:24:18.193Z,30.10
2019-04-21T11:26:47.751Z,29.48
2019-04-21T11:29:17.057Z,30.85
2019-04-21T11:31:47.207Z,32.87
2019-04-21T11:36:44.243Z,29.20
2019-04-21T11:39:25.638Z,30.37
2019-04-21T11:41:45.754Z,29.57
2019-04-21T11:44:14.439Z,27.65
2019-04-21T11:46:42.965Z,27.62
2019-04-21T11:49:12.593Z,27.70
2019-04-21T11:51:41.131Z,25.88
2019-04-21T11:54:10.736Z,27.10
2019-04-21T11:56:39.480Z,24.82
2019-04-21T11:59:08.200Z,24.20
2019-04-21T12:01:36.650Z,21.77
2019-04-21T12:04:05.861Z,23.65
2019-04-21T12:06:40.926Z,23.38
2019-04-21T12:09:06.951Z,23.38
2019-04-21T12:11:39.216Z,24.35
2019-04-21T12:14:08.051Z,23.83
2019-04-21T12:16:37.040Z,22.25
2019-04-21T12:19:07.062Z,24.12
2019-04-21T12:24:06.925Z,24.02
2019-04-21T12:26:35.953Z,24.20
2019-04-21T12:29:06.015Z,23.50
2019-04-21T12:34:12.057Z,21.33
2019-04-21T12:36:42.075Z,21.62
2019-04-21T12:39:12.835Z,17.07
2019-04-21T12:41:42.624Z,17.90
2019-04-21T12:44:11.208Z,16.82
2019-04-21T12:46:40.164Z,16.25
2019-04-21T12:49:09.782Z,17.15
2019-04-21T12:51:39.805Z,18.32
2019-04-21T12:54:09.735Z,17.55
2019-04-21T12:56:38.375Z,18.10
2019-04-21T12:59:07.882Z,17.27
2019-04-21T13:01:38.931Z,18.02
2019-04-21T13:04:08.166Z,17.75
2019-04-21T13:06:37.378Z,17.80
2019-04-21T13:09:10.768Z,17.73
2019-04-21T13:11:37.379Z,18.30
2019-04-21T13:14:06.206Z,18.23
2019-04-21T13:16:39.728Z,17.32
2019-04-21T13:19:09.328Z,18.30
2019-04-21T13:21:38.193Z,17.17
2019-04-21T13:24:07.181Z,17.67
2019-04-21T13:26:42.936Z,18.60
2019-04-21T13:29:06.219Z,18.50
2019-04-21T13:31:36.141Z,18.62
2019-04-21T13:36:33.814Z,18.40
2019-04-21T13:39:33.027Z,18.70
2019-04-21T13:41:47.359Z,18.35
2019-04-21T13:44:15.705Z,17.05
2019-04-21T13:46:45.256Z,17.50
2019-04-21T13:49:14.437Z,16.97
2019-04-21T13:51:43.991Z,17.67
2019-04-21T13:54:13.928Z,18.00
2019-04-21T13:59:11.182Z,17.07
2019-04-21T14:01:39.807Z,17.48
2019-04-21T14:04:09.394Z,16.35
2019-04-21T14:06:38.454Z,19.00
2019-04-21T14:09:09.848Z,18.70
2019-04-21T14:11:38.443Z,18.10
2019-04-21T14:14:08.262Z,18.02
2019-04-21T14:19:05.615Z,17.48
2019-04-21T14:21:34.160Z,17.07
2019-04-21T14:24:02.628Z,17.73
2019-04-21T14:26:32.161Z,16.12
2019-04-21T14:29:01.574Z,16.20
2019-04-21T14:31:30.524Z,15.90
2019-04-21T14:33:59.705Z,16.27
2019-04-21T14:36:28.688Z,16.15
2019-04-21T14:38:58.606Z,16.53
2019-04-21T14:41:28.409Z,16.65
2019-04-21T14:46:31.242Z,16.35
2019-04-21T14:49:17.553Z,14.63
2019-04-21T14:51:47.678Z,14.83
2019-04-21T14:54:33.245Z,15.75
2019-04-21T14:57:03.247Z,15.28
2019-04-21T14:59:33.277Z,15.05
2019-04-21T15:02:02.224Z,14.68
2019-04-21T15:04:31.587Z,15.10
2019-04-21T15:07:01.200Z,15.38
2019-04-21T15:09:31.388Z,14.45
2019-04-21T15:12:00.555Z,14.80
2019-04-21T15:14:29.809Z,14.57
2019-04-21T15:16:58.710Z,15.63
2019-04-21T15:19:28.664Z,15.27
2019-04-21T15:21:58.401Z,14.70
2019-04-21T15:24:27.150Z,14.58
2019-04-21T15:26:56.771Z,14.70
2019-04-21T15:29:26.662Z,14.43
2019-04-21T15:31:56.706Z,14.05
2019-04-21T15:34:27.226Z,13.93
2019-04-21T15:36:55.670Z,12.35
2019-04-21T15:39:25.646Z,13.93
2019-04-21T15:41:54.609Z,13.32
2019-04-21T15:44:23.107Z,12.98
2019-04-21T15:46:52.267Z,13.00
2019-04-21T15:49:23.077Z,13.88
2019-04-21T15:51:51.851Z,14.35
2019-04-21T15:54:20.644Z,13.25
2019-04-21T15:56:51.274Z,14.00
2019-04-21T15:59:36.879Z,12.20
2019-04-21T16:02:24.562Z,13.22
2019-04-21T16:04:53.182Z,13.85
2019-04-21T16:07:24.352Z,13.68
2019-04-21T16:09:54.257Z,14.05
2019-04-21T16:12:23.016Z,14.00
2019-04-21T16:14:52.513Z,13.80
2019-04-21T16:17:21.335Z,14.23
2019-04-21T16:19:49.982Z,15.03
2019-04-21T16:22:18.840Z,13.30
2019-04-21T16:24:47.745Z,13.60
2019-04-21T16:27:17.403Z,13.78
2019-04-21T16:29:46.054Z,13.05
2019-04-21T16:32:17.548Z,12.30
2019-04-21T16:34:50.741Z,12.55
2019-04-21T16:37:14.914Z,12.43
2019-04-21T16:39:43.420Z,12.68
2019-04-21T16:42:12.101Z,12.68
2019-04-21T16:44:41.019Z,13.80
2019-04-21T16:47:09.771Z,12.10
2019-04-21T16:49:38.362Z,12.13
2019-04-21T16:52:18.270Z,12.45
2019-04-21T16:57:33.588Z,12.85
2019-04-21T17:00:04.525Z,12.78
2019-04-21T17:02:34.459Z,12.13
2019-04-21T17:05:04.554Z,12.98
2019-04-21T17:07:33.224Z,12.95
2019-04-21T17:10:02.533Z,13.13
2019-04-21T17:12:31.143Z,12.90
2019-04-21T17:15:15.263Z,13.53
2019-04-21T17:17:49.755Z,12.33
2019-04-21T17:20:13.580Z,12.98
2019-04-21T17:22:31.527Z,13.10
2019-04-21T17:25:00.379Z,12.73
2019-04-21T17:27:29.215Z,13.32
2019-04-21T17:29:59.004Z,12.60
2019-04-21T17:32:34.337Z,13.33
2019-04-21T17:34:58.103Z,13.15
2019-04-21T17:37:29.200Z,13.40
2019-04-21T17:39:59.103Z,13.60
2019-04-21T17:42:38.641Z,12.85
2019-04-21T17:44:59.375Z,13.05
2019-04-21T17:47:41.507Z,12.45
2019-04-21T17:53:00.784Z,14.83
2019-04-21T17:55:36.934Z,14.55
2019-04-21T17:58:16.233Z,14.85
2019-04-21T18:01:10.796Z,15.20
2019-04-21T18:03:32.887Z,15.50
2019-04-21T18:05:50.266Z,15.55
2019-04-21T18:08:30.579Z,16.95
2019-04-21T18:10:50.688Z,16.82
2019-04-21T18:13:12.773Z,17.67
2019-04-21T18:18:28.909Z,17.62
2019-04-21T18:20:59.072Z,17.95
2019-04-21T18:23:46.908Z,18.15
2019-04-21T18:26:23.562Z,18.32
2019-04-21T18:28:38.792Z,18.73
2019-04-21T18:31:10.181Z,18.77
2019-04-21T18:33:42.694Z,19.25
2019-04-21T18:36:19.918Z,19.02
2019-04-21T18:39:04.066Z,19.35
2019-04-21T18:44:48.541Z,19.17
2019-04-21T18:47:19.996Z,20.55
2019-04-21T18:49:26.997Z,24.32
2019-04-21T18:52:22.497Z,24.75
2019-04-21T18:55:00.268Z,19.32
2019-04-21T18:57:26.593Z,21.75
2019-04-21T18:59:47.640Z,20.92
2019-04-21T19:02:18.245Z,21.10
2019-04-21T19:04:46.419Z,20.37
2019-04-21T19:07:29.946Z,20.65
2019-04-21T19:10:18.457Z,21.93
2019-04-21T19:14:58.081Z,21.97
2019-04-21T19:20:11.760Z,24.07
2019-04-21T19:22:33.011Z,22.62
2019-04-21T19:25:23.882Z,23.35
2019-04-21T19:27:33.742Z,23.52
2019-04-21T19:32:37.474Z,23.77
2019-04-21T19:34:52.575Z,23.62
2019-04-21T19:37:22.522Z,24.75
2019-04-21T19:39:57.915Z,25.17
2019-04-21T19:42:30.912Z,26.80
2019-04-21T19:45:05.927Z,27.27
2019-04-21T19:47:42.327Z,26.45
2019-04-21T19:50:05.892Z,27.00
2019-04-21T19:52:30.539Z,28.38
2019-04-21T19:54:50.665Z,29.55
2019-04-21T19:57:19.108Z,30.50
2019-04-21T19:59:51.866Z,29.00
2019-04-21T20:02:18.641Z,29.50
2019-04-21T20:04:54.169Z,29.70
2019-04-21T20:07:33.188Z,30.60
2019-04-21T20:10:11.717Z,31.50
2019-04-21T20:12:42.670Z,31.82
2019-04-21T20:15:10.800Z,33.92
2019-04-21T20:17:36.586Z,36.38
2019-04-21T20:19:50.061Z,39.05
2019-04-21T20:22:18.901Z,37.58
2019-04-21T20:25:11.737Z,37.75
2019-04-21T20:27:49.502Z,39.63
2019-04-21T20:30:27.820Z,41.42
2019-04-21T20:33:13.687Z,43.63
2019-04-21T20:35:43.330Z,44.55
2019-04-21T20:37:55.079Z,47.78
2019-04-21T20:40:21.813Z,51.35
2019-04-21T20:42:58.842Z,51.98
2019-04-21T20:45:34.508Z,53.60
2019-04-21T20:47:48.990Z,53.90
2019-04-21T20:50:27.393Z,54.58
2019-04-21T20:53:01.661Z,55.80
2019-04-21T20:55:22.510Z,57.38
2019-04-21T20:57:55.419Z,59.25
2019-04-21T21:00:32.749Z,60.20
2019-04-21T21:03:07.735Z,58.83
2019-04-21T21:05:27.479Z,62.90
2019-04-21T21:08:08.731Z,63.95
2019-04-21T21:10:34.741Z,64.25
2019-04-21T21:13:14.762Z,65.37
2019-04-21T21:15:29.303Z,65.87
2019-04-21T21:20:35.705Z,65.25
2019-04-21T21:22:58.474Z,64.82
2019-04-21T21:25:41.923Z,64.62
2019-04-21T21:27:59.601Z,66.45
2019-04-21T21:30:32.350Z,61.40
2019-04-21T21:33:11.248Z,64.67
2019-04-21T21:35:30.380Z,63.92
2019-04-21T21:40:38.161Z,60.58
2019-04-21T21:42:51.152Z,59.13
2019-04-21T21:45:25.155Z,57.73
2019-04-21T21:48:06.931Z,59.85
2019-04-21T21:50:29.849Z,59.05
2019-04-21T21:55:21.515Z,57.40
2019-04-21T21:57:55.375Z,59.10
2019-04-21T22:00:23.985Z,55.75
2019-04-21T22:02:56.562Z,52.93
2019-04-21T22:05:25.810Z,50.40
2019-04-21T22:07:54.342Z,49.23
2019-04-21T22:10:23.195Z,52.17
2019-04-21T22:13:01.022Z,50.92
2019-04-21T22:15:24.964Z,51.13
2019-04-21T22:18:15.039Z,50.30
2019-04-21T22:20:44.545Z,49.83
2019-04-21T22:22:59.654Z,47.48
2019-04-21T22:25:29.525Z,47.95
2019-04-21T22:27:53.843Z,46.48
2019-04-21T22:30:29.966Z,46.95
2019-04-21T22:32:59.880Z,46.05
2019-04-21T22:35:31.502Z,47.23
2019-04-21T22:38:10.649Z,46.80
2019-04-21T22:40:33.841Z,47.13
2019-04-21T22:43:04.864Z,45.33
2019-04-21T22:45:25.144Z,45.95
2019-04-21T22:47:58.736Z,43.75
2019-04-21T22:50:30.591Z,43.87
2019-04-21T22:53:04.002Z,42.88
2019-04-21T22:55:33.446Z,44.30
2019-04-21T22:58:01.542Z,43.73
2019-04-21T23:00:39.042Z,44.67
2019-04-21T23:03:09.553Z,45.58
2019-04-21T23:05:36.278Z,45.73
2019-04-21T23:08:04.800Z,45.65
2019-04-21T23:10:31.544Z,46.33
2019-04-21T23:13:07.159Z,45.17
2019-04-21T23:15:38.361Z,45.43
2019-04-21T23:18:23.058Z,45.48
2019-04-21T23:20:56.738Z,46.20
2019-04-21T23:23:22.159Z,44.60
2019-04-21T23:25:51.928Z,45.13
2019-04-21T23:28:14.790Z,45.95
2019-04-21T23:30:54.471Z,46.28
2019-04-21T23:33:08.207Z,44.48
2019-04-21T23:35:38.786Z,43.50
2019-04-21T23:38:06.758Z,43.28
2019-04-21T23:40:33.475Z,41.95
2019-04-21T23:43:09.591Z,40.78
2019-04-21T23:45:38.048Z,37.42
2019-04-21T23:48:18.583Z,38.45
2019-04-21T23:50:43.080Z,38.57
2019-04-21T23:53:03.598Z,37.73
2019-04-21T23:55:32.111Z,37.67
2019-04-21T23:58:09.447Z,38.88
